Create Custom Reports and Graphics: Custom Report

Latest 15 Minute Observations

Map

15 Minute Data

Latest Observation

38 Stations

15 Minute Data | America/Los_Angeles
as of 5/19/24 6:41 AM PDT
Station Date Time Temp (°F) RH (%) Dew Pt (°F) Wind Spd (mph) Wind Dir (°) Wind Gust (mph) Latest Rain (In) Daily Rain (In) Daily Min Temp (°F) Daily Max Temp (°F) Daily Max Wind (mph)
Upper Lake 5/19/24 0630 43.6   7.3 94   4 42.0   8.3 1.0 SE | 139 3.7   1.6 0.00 0.00 42.9   7.1 60.0   4.8 17.2   14.5
Scotts Valley 5/19/24 0630 37.4   9.3 96   1 36.6   9.5 0.1 N | 354 0.8   0.8 0.00 0.00 37.1   9.2 53.6   0.6 2.8   1.5
Scotts Valley-South (Bella Vista) 5/19/24 0630 41.1   9.4 92   2 39.0   10.0 0.1 S | 190 0.9   1.2 0.00 0.00 40.8   8.9 49.9   7.3 4.8   0.7
Kelseyville 5/19/24 0630 42.2   9.6 89   7 39.2   11.4 0.8 SSW | 202 2.2   0.7 0.00 0.00 41.3   8.5 54.1   3.5 4.8   2.0
Kelseyville Remote 5/19/24 0630 44.4   6.5 74   15 36.5   11.3 - - - 0.00 0.00 42.3   5.8 53.9   0.8 -
Kelseyville (Clark Drive) 5/19/24 0630 42.2   7.0 - - - - - 0.00 0.00 40.7   7.7 53.4   3.0 -
Kelsey Bench (Oaklea) 5/19/24 0630 47.3   6.7 70   21 38.0   13.5 4.3 S | 176 5.9   0.8 0.00 0.00 44.9   8.8 53.9   7.3 6.4   0.0
Smith Lane (Kelseyville-South) 5/19/24 0630 43.2   8.5 92   5 41.1   9.9 0.0 N | 0 0.0   2.6 0.00 0.00 42.0   8.2 52.9   4.0 4.9   2.2
Bell Hill-West 5/19/24 0630 43.7   8.2 97   3 42.8   9.0 2.8 S | 185 4.4   1.0 0.00 0.00 43.0   8.6 54.6   3.2 4.4   0.3
Wight Way (Adobe Creek) 5/19/24 0600 41.6   7.2 89   9 38.5   9.6 2.4 SSE | 156 3.4   1.5 0.00 0.00 41.3   7.3 53.5   1.9 5.0   1.6
High Valley Ridgeline (Brassfield) 5/19/24 0630 54.7   4.9 43   42 32.8   22.4 4.9 W | 275 7.6   4.7 0.00 0.00 54.0   4.8 57.2   8.5 14.6   7.2
Ridgeline Top (Brassfield) 5/19/24 0630 56.1   7.0 - - - - - - - 53.0   5.8 57.7   8.1 -
Ridgeline Low (Brassfield) 5/19/24 0630 55.1   4.6 - - - - - - - 53.6   3.4 59.0   6.5 -
Long Valley (Shannon) 5/19/24 0630 39.9   8.7 - - 0.5 ENE | 74 2.0   0.1 0.00 0.00 39.5   7.8 50.7   4.5 4.1   0.2
High Valley Winery 5/19/24 0630 42.1   7.7 90   10 39.3   10.5 0.2 ENE | 72 1.7   0.4 0.00 0.00 39.6   9.4 58.1   2.3 6.3   2.9
Round Mtn Rd. 5/19/24 0630 45.6   6.7 - - - - - - - 44.4   7.2 56.7   2.5 -
Circle O 5/19/24 0630 44.2   7.4 - - - - - - - 43.4   6.8 52.0   6.9 -
Robertsbridge Vineyards 5/19/24 0630 41.4   9.6 88   6 38.2   11.2 - - - - - 40.6   10.3 46.6   9.6 -
Urgency Vineyard 5/19/24 0630 50.8   2.7 55   42 35.0   17.5 2.3 SSW | 209 4.3   1.2 0.00 0.00 48.2   1.6 58.2   5.7 10.2   5.5
Red Hills (Beckstoffer) 5/19/24 0630 44.9   4.9 78   19 38.4   10.6 - - - 0.00 0.00 42.6   5.7 60.0   5.4 -
Winters (Shannon) 5/19/24 0630 37.8   9.9 92   4 35.8   11.1 0.0 NE | 35 0.7   0.3 0.00 0.00 37.5   9.2 61.1   7.1 11.6   10.5
Secret Pond (Shannon) 5/19/24 0630 51.7   2.1 46   49 31.5   16.7 2.6 NNW | 332 4.2   4.2 0.00 0.00 50.0   1.0 60.5   0.7 15.9   13.9
Rolling Knolls (Shannon) 5/19/24 0630 43.2   5.2 88   8 40.0   7.5 0.4 SSW | 211 2.1   0.3 0.00 0.00 42.8   5.1 61.7   5.7 6.3   3.4
Lower Lake 5/19/24 0630 52.4   3.5 63   32 40.1   14.4 1.6 SW | 234 3.7   1.2 0.00 0.00 49.9   3.8 59.7   0.8 6.4   2.2
Adamson Ranch 5/19/24 0630 44.0   7.0 97   0 43.2   6.9 0.5 SSW | 210 1.3   1.3 0.00 0.00 41.9   7.5 51.7   5.3 2.8   0.2
Middletown (Diamond D) 5/19/24 0630 44.6   8.4 95   1 43.1   8.7 0.0 SE | 134 0.8   0.2 0.00 0.00 44.0   8.2 49.1   9.8 4.6   1.1
Middletown-West (Atlas VM) 5/19/24 0630 41.6   9.7 98   1 41.1   9.9 0.3 SSW | 200 2.1   0.3 0.00 0.00 38.0   9.3 45.6   10.3 3.3   0.5
Middletown-South 5/19/24 0630 43.2   8.2 95   1 42.0   8.4 0.4 SW | 236 2.0   2.0 0.00 0.00 42.7   8.3 47.6   10.1 3.0   0.5
Jim Davis (Langtry) 5/19/24 0630 47.2   5.0 98   2 46.7   4.3 1.3 NE | 36 2.3   1.1 0.00 0.00 45.1   7.0 52.3   7.1 5.8   0.7
Napa Basin 5/19/24 0630 47.1   1.8 100   1 47.1   1.5 0.6 NNW | 338 2.3   2.0 0.00 0.00 41.9   6.2 52.2   7.1 5.9   1.0
Lower Bohn 5/19/24 0630 42.1   6.5 100   0 42.1   6.4 0.2 WNW | 300 1.3   1.3 0.00 0.00 40.4   5.1 47.4   10.6 3.1   2.2
Upper Bohn-North 5/19/24 0630 45.8   5.3 97   1 45.0   4.9 0.4 WNW | 289 1.5   0.2 0.00 0.00 43.8   6.6 51.8   6.9 -
Upper Bohn-South 5/19/24 0630 45.5   6.2 - - 0.0 ESE | 116 1.1   1.1 0.00 0.00 44.6   6.7 50.0   8.9 -
Morgan Valley 5/19/24 0630 59.5   1.7 54   27 42.7   12.3 9.9 WNW | 284 14.7   13.4 0.00 0.00 56.4   3.9 60.1   5.4 14.7   5.1
Mine Pit North 5/19/24 0630 47.5   8.7 100   5 47.5   7.2 5.2 SW | 221 7.8   1.5 - - 46.0   9.0 52.4   8.0 12.3   0.4
Mine Pit South 5/19/24 0630 47.3   9.1 100   8 47.3   6.6 0.3 S | 191 3.0   0.4 0.00 0.00 46.7   8.4 50.8   8.1 12.3   3.7
Cow Mountain 5/19/24 0630 55.2   11.0 - - 7.6 WNW | 295 18.6   14.0 0.00 0.00 53.4   11.6 61.6   7.3 27.0   16.9
Ukiah-SE (Ruddick) 5/19/24 0630 41.0   8.7 89   8 38.1   10.8 0.4 SW | 232 1.9   8.1 0.00 0.00 40.8   8.5 50.0   6.4 3.0   8.9
Max     59.5 100 47.5 9.9 - 18.6 0.00 0.00 56.4 61.7 27.0
Avg     45.7 85 40.4 1.7 - 3.6 0.00 - - - -
Min     37.4 43 31.5 0.0 - 0.0 0.00 0.00 37.1 45.6 2.8

Yesterday's Daily Summary

38 Stations

Daily Data | America/Los_Angeles
as of 5/19/24 6:41 AM PDT
Station Date Daily Max Temp (°F) Daily Min Temp (°F) Daily Rain (In) Season Precip (In) Wind Spd (mph) Daily Max Wind (mph) Time of Max Wind Max Wind Dir (°) Dew Pt (°F) Max RH (%) Min RH (%) Daily Solar Rad (Cal/cm2) Daily ETo (in) 7 Day ETo (in) Chilling <=45F (hrs) Chilling <=45F Seas (hrs) Hrs 70-85F (hrs) Hrs > 95F (hrs) Powdery Mildew Stress (pts) Daily Leaf Wet (Hrs) GDDs (DL) Seas GDDs (DL) MinBV Day (V)
Upper Lake 5/18/24 82.9   2.8 50.0   1.8 0.00 38.10 3.0 18.5   5.4 1911 WNW | 290 52.6   3.0 99 35 - - - 0.0 - 10.99 0.00 100 5.9 17.2 403 12.3
Scotts Valley 5/18/24 84.0   4.8 46.3   1.4 0.00 32.11 2.0 17.9   6.6 1809 WSW | 258 50.8   3.6 99 27 - - - 0.0 - 10.88 0.00 20 5.2 16.5 417 12.4
Scotts Valley-South (Bella Vista) 5/18/24 84.2   1.8 49.7   1.7 0.00 33.32 3.3 17.3   4.4 1503 W | 271 49.2   4.2 96 21 640 0.225 1.55 0.0 - 11.15 0.00 70 - 17.2 413 12.6
Kelseyville 5/18/24 84.2   3.0 49.9   2.3 0.00 28.50 3.6 18.2   7.0 1704 WSW | 248 51.2   3.2 97 35 709 0.239 1.70 0.0 - 10.16 0.00 40 0.0 16.6 428 12.6
Kelseyville Remote 5/18/24 87.4   2.7 48.1   1.5 0.00 29.49 - - - - 48.9   4.1 90 28 - - - 0.0 - 5.35 0.00 0 - 18.0 465 12.7
Kelseyville (Clark Drive) 5/18/24 83.9   2.8 48.4   1.0 0.00 29.27 - - - - - - - - - - 0.0 - 10.49 0.00 70 - 16.4 434 12.8
Kelsey Bench (Oaklea) 5/18/24 82.0   3.7 53.5   3.2 0.00 33.07 5.2 19.1   5.1 1424 WSW | 248 50.0   3.5 94 33 730 0.248 1.77 0.0 - 10.96 0.00 100 - 17.1 437 12.7
Smith Lane (Kelseyville-South) 5/18/24 82.7   3.7 50.1   1.5 0.00 30.62 3.7 17.7   3.4 1548 SW | 215 43.3   11.1 - - - - - 0.0 - 11.25 0.00 40 4.3 16.8 440 12.7
Bell Hill-West 5/18/24 81.5   3.3 51.6   1.9 0.00 32.03 3.6 18.5   5.0 1606 SW | 232 55.0   3.0 100 40 758 0.240 1.76 0.0 - 10.56 0.00 100 - 16.5 418 12.6
Wight Way (Adobe Creek) 5/18/24 84.4   2.6 48.6   1.5 0.00 41.01 3.1 20.0   8.1 1547 WNW | 290 51.5   3.6 98 31 680 0.227 1.62 0.0 - 11.51 0.00 70 - 16.3 445 12.6
High Valley Ridgeline (Brassfield) 5/18/24 80.3   2.0 57.1   1.2 0.00 33.37 6.8 22.7   9.7 1640 WSW | 241 51.5   3.5 92 33 707 0.245 1.79 0.0 - 8.55 0.00 100 - 17.6 432 12.6
Ridgeline Top (Brassfield) 5/18/24 82.6   1.3 56.5   1.0 - - - - - - - - - - - - 0.0 - 10.43 0.00 100 - 18.6 448 12.8
Ridgeline Low (Brassfield) 5/18/24 81.4   4.0 57.0   3.3 - - - - - - - - - - - - 0.0 - 10.06 0.00 100 - 18.4 455 12.8
Long Valley (Shannon) 5/18/24 87.9   1.6 46.6   0.1 0.00 42.23 2.5 16.3   5.6 1515 SW | 225 - - 3 641 0.229 1.56 0.0 - 4.30 0.00 0 - 16.9 451 12.9
High Valley Winery 5/18/24 82.0   4.1 49.1   2.1 0.00 35.15 5.0 21.9   7.2 1726 WSW | 239 51.1   2.9 100 31 - - - 0.0 - 10.69 0.00 100 - 16.9 420 12.6
Round Mtn Rd. 5/18/24 83.7   1.3 51.6   2.0 - - - - - - - - - - - - 0.0 - 10.51 0.00 100 - 17.7 428 12.7
Circle O 5/18/24 82.5   2.5 50.1   0.6 - - - - - - - - - - - - 0.0 - 9.57 0.00 100 - 16.2 396 12.7
Robertsbridge Vineyards 5/18/24 84.9   3.5 46.5   2.4 - - - - - - 50.8   3.2 96 30 - - - 0.0 - 10.52 0.00 20 - 16.1 - 12.6
Urgency Vineyard 5/18/24 87.0   0.6 49.8   2.0 0.00 37.04 3.0 15.9   3.9 1824 W | 267 48.8   4.8 97 24 711 0.240 1.70 0.0 - 10.78 0.00 100 - 18.5 457 12.6
Red Hills (Beckstoffer) 5/18/24 85.5   2.3 48.3   1.4 0.00 38.54 - - - - 49.1   4.6 99 26 - - - 0.0 - 11.19 0.00 100 - 18.0 459 12.6
Winters (Shannon) 5/18/24 82.3   1.5 46.7   1.6 0.00 44.32 3.4 21.9   8.9 1650 WNW | 299 47.6   4.5 97 26 317 0.146 1.51 0.0 - 10.75 0.00 100 - 16.0 400 12.9
Secret Pond (Shannon) 5/18/24 81.8   2.3 48.9   0.1 0.00 46.71 3.9 23.2   9.6 1756 NW | 308 47.9   5.0 96 26 639 0.232 1.57 0.0 - 10.97 0.00 100 - 16.8 416 12.9
Rolling Knolls (Shannon) 5/18/24 85.5   1.5 47.8   2.7 0.00 38.22 2.2 16.2   8.9 1839 WSW | 257 49.1   3.9 98 26 606 0.211 1.45 0.0 - 10.99 0.00 20 - 18.0 443 12.8
Lower Lake 5/18/24 85.9   0.2 53.7   4.1 0.00 36.92 4.8 21.6   10.4 2009 WNW | 293 50.8   3.8 97 27 - - - 0.0 - 11.26 0.00 100 - 19.9 485 12.6
Adamson Ranch 5/18/24 88.6   0.2 49.4   0.4 0.00 33.54 1.8 14.0   1.5 1453 S | 172 52.8   2.6 99 24 - - - 0.0 - 3.93 0.00 0 - 18.4 459 12.6
Middletown (Diamond D) 5/18/24 83.4   1.4 49.1   0.8 0.00 41.08 2.8 16.3   2.7 1600 NNE | 33 54.4   1.5 96 42 340 0.129 0.97 0.0 - 9.88 0.00 100 - 15.5 488 12.6
Middletown-West (Atlas VM) 5/18/24 83.4   5.1 43.4   1.0 0.00 49.32 4.2 22.4   7.8 1357 SW | 222 53.2   1.5 100 43 - - - 0.3 - 10.03 0.00 100 - 13.9 467 12.5
Middletown-South 5/18/24 83.2   2.7 47.2   0.5 0.00 57.73 1.6 14.7   4.4 1610 SSW | 196 52.9   1.4 97 39 - - - 0.0 - 9.73 0.00 100 6.8 14.8 457 12.5
Jim Davis (Langtry) 5/18/24 80.1   4.4 52.1   0.6 0.00 30.52 3.9 14.4   1.4 1447 ESE | 118 54.8   0.5 98 48 687 0.212 1.63 0.0 - 9.20 0.00 100 - 15.2 530 12.7
Napa Basin 5/18/24 80.0   5.0 48.0   4.7 0.00 27.03 4.2 16.9   2.6 1400 SSE | 158 54.7   1.2 100 49 495 0.171 1.32 0.0 - 9.16 0.00 100 - 14.5 511 12.6
Lower Bohn 5/18/24 80.2   3.9 45.4   0.5 0.00 34.63 3.6 15.6   3.2 1504 S | 183 54.7   0.9 100 50 637 0.203 1.53 0.0 - 9.45 0.00 100 - 13.6 485 12.6
Upper Bohn-North 5/18/24 80.3   4.6 50.4   1.1 0.00 26.73 3.3 15.6   3.5 1426 ESE | 117 53.5   1.1 96 45 669 0.208 - 0.0 1,099 8.82 0.00 100 - 14.5 534 12.2
Upper Bohn-South 5/18/24 81.2   4.4 49.8   1.3 0.00 28.58 1.6 12.9   1.1 1447 ESE | 113 - 69 53 565 0.172 - 0.0 1,062 8.96 0.00 60 - 14.8 549 11.9
Morgan Valley 5/18/24 77.4   3.4 58.9   4.0 0.00 33.45 5.7 25.2   8.0 1853 W | 259 54.0   1.9 82 38 750 0.240 1.82 0.0 - 9.44 0.00 100 - 18.4 468 12.8
Mine Pit North 5/18/24 82.7   3.8 52.2   3.2 - - 6.6 21.2   4.1 1608 SSW | 205 56.5   1.8 96 44 - - - - - - - - - - - 12.4
Mine Pit South 5/18/24 81.3   6.8 50.4   0.6 0.00 32.42 4.8 16.8   1.5 2201 SE | 133 54.5   0.8 93 41 - - - - - - - - - - - 12.3
Cow Mountain 5/18/24 71.0   1.6 52.6   10.6 0.00 46.69 9.8 34.4   13.6 1655 W | 275 - - - - - - 0.0 - - - - - - - 12.8
Ukiah-SE (Ruddick) 5/18/24 83.5   3.1 49.3   2.9 0.00 38.97 6.0 18.9   6.0 1702 NNW | 340 48.2   4.8 98 19 626 0.212 1.51 0.0 - 4.38 0.00 0 2.3 13.4 432 12.9
Max   88.6 58.9 0.00 57.73 9.8 34.4 - - 56.5 100 53 758 0.248 1.82 0.3 - 11.51 0.00 - 6.8 19.9 - 12.9
Avg   - - - - 4.0 - - - 51.4 - - - - - 0.0 - 9.62 0.00 - - 16.6 - -
Min   71.0 43.4 0.00 26.73 1.6 12.9 - - 43.3 69 3 317 0.129 0.97 0.0 - 3.93 0.00 - 0.0 13.4 - 11.9